sensor_id;sensor_type;location;lat;lon;timestamp;P1;durP1;ratioP1;P2;durP2;ratioP2
46563;SDS011;32291;52.010;4.446;2023-04-24T00:00:57;7.32;;;5.30;;
46563;SDS011;32291;52.010;4.446;2023-04-24T00:02:01;6.15;;;5.55;;
46563;SDS011;32291;52.010;4.446;2023-04-24T00:03:04;6.82;;;5.07;;
46563;SDS011;32291;52.010;4.446;2023-04-24T00:04:06;8.75;;;5.20;;
46563;SDS011;32291;52.010;4.446;2023-04-24T00:05:11;6.82;;;4.75;;
46563;SDS011;32291;52.010;4.446;2023-04-24T00:06:15;10.05;;;5.80;;
46563;SDS011;32291;52.010;4.446;2023-04-24T00:07:17;6.95;;;5.45;;
46563;SDS011;32291;52.010;4.446;2023-04-24T00:08:20;6.80;;;5.40;;
46563;SDS011;32291;52.010;4.446;2023-04-24T00:09:23;6.35;;;5.75;;
46563;SDS011;32291;52.010;4.446;2023-04-24T00:10:25;8.32;;;6.07;;
46563;SDS011;32291;52.010;4.446;2023-04-24T00:11:27;8.90;;;5.40;;
46563;SDS011;32291;52.010;4.446;2023-04-24T00:12:29;8.50;;;6.00;;
46563;SDS011;32291;52.010;4.446;2023-04-24T00:13:31;7.82;;;6.57;;
46563;SDS011;32291;52.010;4.446;2023-04-24T00:14:33;10.05;;;5.97;;
46563;SDS011;32291;52.010;4.446;2023-04-24T00:15:36;8.32;;;6.80;;
46563;SDS011;32291;52.010;4.446;2023-04-24T00:16:37;8.90;;;6.95;;
46563;SDS011;32291;52.010;4.446;2023-04-24T00:17:39;10.25;;;7.30;;
46563;SDS011;32291;52.010;4.446;2023-04-24T00:18:40;9.15;;;6.78;;
46563;SDS011;32291;52.010;4.446;2023-04-24T00:19:42;6.63;;;5.70;;
46563;SDS011;32291;52.010;4.446;2023-04-24T00:20:44;7.63;;;5.63;;
46563;SDS011;32291;52.010;4.446;2023-04-24T00:21:47;6.15;;;5.57;;
46563;SDS011;32291;52.010;4.446;2023-04-24T00:22:52;7.00;;;5.30;;
46563;SDS011;32291;52.010;4.446;2023-04-24T00:23:53;7.43;;;5.22;;
46563;SDS011;32291;52.010;4.446;2023-04-24T00:24:55;5.28;;;4.53;;
46563;SDS011;32291;52.010;4.446;2023-04-24T00:25:57;6.72;;;5.10;;
46563;SDS011;32291;52.010;4.446;2023-04-24T00:26:59;7.30;;;5.00;;
46563;SDS011;32291;52.010;4.446;2023-04-24T00:28:01;5.60;;;4.20;;
46563;SDS011;32291;52.010;4.446;2023-04-24T00:29:03;7.68;;;5.18;;
46563;SDS011;32291;52.010;4.446;2023-04-24T00:30:05;8.35;;;5.22;;
46563;SDS011;32291;52.010;4.446;2023-04-24T00:31:08;5.78;;;5.20;;
46563;SDS011;32291;52.010;4.446;2023-04-24T00:32:10;7.43;;;4.35;;
46563;SDS011;32291;52.010;4.446;2023-04-24T00:33:12;5.75;;;5.07;;
46563;SDS011;32291;52.010;4.446;2023-04-24T00:34:14;8.30;;;5.47;;
46563;SDS011;32291;52.010;4.446;2023-04-24T00:35:16;8.18;;;5.13;;
46563;SDS011;32291;52.010;4.446;2023-04-24T00:36:18;5.70;;;5.20;;
46563;SDS011;32291;52.010;4.446;2023-04-24T00:37:21;6.13;;;4.32;;
46563;SDS011;32291;52.010;4.446;2023-04-24T00:38:22;9.27;;;5.03;;
46563;SDS011;32291;52.010;4.446;2023-04-24T00:39:24;5.95;;;4.90;;
46563;SDS011;32291;52.010;4.446;2023-04-24T00:40:26;5.72;;;4.80;;
46563;SDS011;32291;52.010;4.446;2023-04-24T00:41:29;8.20;;;4.70;;
46563;SDS011;32291;52.010;4.446;2023-04-24T00:42:32;4.38;;;3.90;;
46563;SDS011;32291;52.010;4.446;2023-04-24T00:43:35;9.73;;;4.53;;
46563;SDS011;32291;52.010;4.446;2023-04-24T00:44:36;7.70;;;5.13;;
46563;SDS011;32291;52.010;4.446;2023-04-24T00:45:39;8.60;;;5.22;;
46563;SDS011;32291;52.010;4.446;2023-04-24T00:46:41;7.45;;;5.07;;
46563;SDS011;32291;52.010;4.446;2023-04-24T00:47:43;6.25;;;4.43;;
46563;SDS011;32291;52.010;4.446;2023-04-24T00:48:47;8.85;;;5.07;;
46563;SDS011;32291;52.010;4.446;2023-04-24T00:49:49;6.60;;;4.32;;
46563;SDS011;32291;52.010;4.446;2023-04-24T00:50:50;5.32;;;4.28;;
46563;SDS011;32291;52.010;4.446;2023-04-24T00:51:52;7.70;;;4.70;;
46563;SDS011;32291;52.010;4.446;2023-04-24T00:52:54;8.55;;;4.50;;
46563;SDS011;32291;52.010;4.446;2023-04-24T00:53:56;7.35;;;4.45;;
46563;SDS011;32291;52.010;4.446;2023-04-24T00:54:58;4.53;;;4.03;;
46563;SDS011;32291;52.010;4.446;2023-04-24T00:56:00;5.30;;;4.00;;
46563;SDS011;32291;52.010;4.446;2023-04-24T00:57:03;6.85;;;4.68;;
46563;SDS011;32291;52.010;4.446;2023-04-24T00:58:05;5.95;;;4.65;;
46563;SDS011;32291;52.010;4.446;2023-04-24T00:59:08;4.88;;;4.47;;
46563;SDS011;32291;52.010;4.446;2023-04-24T01:00:10;7.38;;;4.60;;
46563;SDS011;32291;52.010;4.446;2023-04-24T01:01:13;6.10;;;4.47;;
46563;SDS011;32291;52.010;4.446;2023-04-24T01:02:15;7.22;;;4.13;;
46563;SDS011;32291;52.010;4.446;2023-04-24T01:03:22;6.45;;;3.78;;
46563;SDS011;32291;52.010;4.446;2023-04-24T01:04:29;7.07;;;3.38;;
46563;SDS011;32291;52.010;4.446;2023-04-24T01:05:30;6.22;;;4.05;;
46563;SDS011;32291;52.010;4.446;2023-04-24T01:06:32;5.18;;;3.55;;
46563;SDS011;32291;52.010;4.446;2023-04-24T01:07:35;4.75;;;3.40;;
46563;SDS011;32291;52.010;4.446;2023-04-24T01:08:37;3.50;;;3.20;;
46563;SDS011;32291;52.010;4.446;2023-04-24T01:09:41;3.35;;;3.05;;
46563;SDS011;32291;52.010;4.446;2023-04-24T01:10:43;4.20;;;3.15;;
46563;SDS011;32291;52.010;4.446;2023-04-24T01:11:48;6.70;;;3.83;;
46563;SDS011;32291;52.010;4.446;2023-04-24T01:12:51;6.88;;;3.38;;
46563;SDS011;32291;52.010;4.446;2023-04-24T01:13:54;5.82;;;3.58;;
46563;SDS011;32291;52.010;4.446;2023-04-24T01:14:56;5.47;;;3.00;;
46563;SDS011;32291;52.010;4.446;2023-04-24T01:15:58;6.53;;;3.58;;
46563;SDS011;32291;52.010;4.446;2023-04-24T01:17:01;5.05;;;3.50;;
46563;SDS011;32291;52.010;4.446;2023-04-24T01:18:03;3.85;;;3.25;;
46563;SDS011;32291;52.010;4.446;2023-04-24T01:19:06;3.88;;;3.08;;
46563;SDS011;32291;52.010;4.446;2023-04-24T01:20:08;5.68;;;3.08;;
46563;SDS011;32291;52.010;4.446;2023-04-24T01:21:12;2.67;;;2.45;;
46563;SDS011;32291;52.010;4.446;2023-04-24T01:22:17;5.55;;;3.10;;
46563;SDS011;32291;52.010;4.446;2023-04-24T01:23:19;3.78;;;2.80;;
46563;SDS011;32291;52.010;4.446;2023-04-24T01:24:20;4.03;;;2.83;;
46563;SDS011;32291;52.010;4.446;2023-04-24T01:25:22;4.03;;;2.60;;
46563;SDS011;32291;52.010;4.446;2023-04-24T01:26:26;5.10;;;3.80;;
46563;SDS011;32291;52.010;4.446;2023-04-24T01:27:28;4.13;;;3.05;;
46563;SDS011;32291;52.010;4.446;2023-04-24T01:28:30;4.00;;;3.40;;
46563;SDS011;32291;52.010;4.446;2023-04-24T01:29:32;3.30;;;3.00;;
46563;SDS011;32291;52.010;4.446;2023-04-24T01:30:35;4.25;;;2.83;;
46563;SDS011;32291;52.010;4.446;2023-04-24T01:31:37;8.18;;;3.70;;
46563;SDS011;32291;52.010;4.446;2023-04-24T01:32:40;3.90;;;3.10;;
46563;SDS011;32291;52.010;4.446;2023-04-24T01:33:45;4.80;;;3.08;;
46563;SDS011;32291;52.010;4.446;2023-04-24T01:34:48;6.22;;;3.30;;
46563;SDS011;32291;52.010;4.446;2023-04-24T01:35:52;4.80;;;3.17;;
46563;SDS011;32291;52.010;4.446;2023-04-24T01:36:54;3.60;;;3.30;;
46563;SDS011;32291;52.010;4.446;2023-04-24T01:37:57;4.35;;;3.40;;
46563;SDS011;32291;52.010;4.446;2023-04-24T01:38:58;5.45;;;3.35;;
46563;SDS011;32291;52.010;4.446;2023-04-24T01:40:01;5.18;;;4.60;;
46563;SDS011;32291;52.010;4.446;2023-04-24T01:41:04;5.07;;;4.28;;
46563;SDS011;32291;52.010;4.446;2023-04-24T01:42:06;5.13;;;4.60;;
46563;SDS011;32291;52.010;4.446;2023-04-24T01:43:08;5.38;;;4.88;;
46563;SDS011;32291;52.010;4.446;2023-04-24T01:44:10;5.28;;;4.78;;
46563;SDS011;32291;52.010;4.446;2023-04-24T01:45:11;8.18;;;5.38;;
46563;SDS011;32291;52.010;4.446;2023-04-24T01:46:14;7.10;;;4.80;;
46563;SDS011;32291;52.010;4.446;2023-04-24T01:47:16;8.10;;;5.10;;
46563;SDS011;32291;52.010;4.446;2023-04-24T01:48:18;7.05;;;5.38;;
46563;SDS011;32291;52.010;4.446;2023-04-24T01:49:20;7.07;;;5.07;;
46563;SDS011;32291;52.010;4.446;2023-04-24T01:50:22;6.20;;;5.57;;
46563;SDS011;32291;52.010;4.446;2023-04-24T01:51:23;6.22;;;5.40;;
46563;SDS011;32291;52.010;4.446;2023-04-24T01:52:26;6.25;;;5.07;;
46563;SDS011;32291;52.010;4.446;2023-04-24T01:53:29;5.32;;;4.80;;
46563;SDS011;32291;52.010;4.446;2023-04-24T01:54:31;5.60;;;5.10;;
46563;SDS011;32291;52.010;4.446;2023-04-24T01:55:33;7.97;;;5.90;;
46563;SDS011;32291;52.010;4.446;2023-04-24T01:56:34;6.47;;;4.90;;
46563;SDS011;32291;52.010;4.446;2023-04-24T01:57:40;7.38;;;6.43;;
46563;SDS011;32291;52.010;4.446;2023-04-24T01:58:42;6.85;;;5.57;;
46563;SDS011;32291;52.010;4.446;2023-04-24T01:59:45;6.90;;;5.90;;
46563;SDS011;32291;52.010;4.446;2023-04-24T02:00:47;7.97;;;5.85;;
46563;SDS011;32291;52.010;4.446;2023-04-24T02:01:49;5.03;;;4.35;;
46563;SDS011;32291;52.010;4.446;2023-04-24T02:02:51;5.30;;;4.65;;
46563;SDS011;32291;52.010;4.446;2023-04-24T02:03:52;7.93;;;4.78;;
46563;SDS011;32291;52.010;4.446;2023-04-24T02:04:54;5.00;;;4.50;;
46563;SDS011;32291;52.010;4.446;2023-04-24T02:05:55;6.15;;;4.38;;
46563;SDS011;32291;52.010;4.446;2023-04-24T02:06:57;5.43;;;4.18;;
46563;SDS011;32291;52.010;4.446;2023-04-24T02:07:59;5.93;;;3.97;;
46563;SDS011;32291;52.010;4.446;2023-04-24T02:09:01;5.35;;;3.60;;
46563;SDS011;32291;52.010;4.446;2023-04-24T02:10:04;5.22;;;4.30;;
46563;SDS011;32291;52.010;4.446;2023-04-24T02:11:08;5.78;;;4.25;;
46563;SDS011;32291;52.010;4.446;2023-04-24T02:12:11;5.53;;;4.57;;
46563;SDS011;32291;52.010;4.446;2023-04-24T02:13:12;9.05;;;4.63;;
46563;SDS011;32291;52.010;4.446;2023-04-24T02:14:14;5.88;;;4.45;;
46563;SDS011;32291;52.010;4.446;2023-04-24T02:15:15;6.97;;;4.22;;
46563;SDS011;32291;52.010;4.446;2023-04-24T02:16:18;5.53;;;4.75;;
46563;SDS011;32291;52.010;4.446;2023-04-24T02:17:20;9.98;;;4.97;;
46563;SDS011;32291;52.010;4.446;2023-04-24T02:18:22;5.53;;;3.60;;
46563;SDS011;32291;52.010;4.446;2023-04-24T02:19:24;3.75;;;3.35;;
46563;SDS011;32291;52.010;4.446;2023-04-24T02:20:25;4.13;;;3.80;;
46563;SDS011;32291;52.010;4.446;2023-04-24T02:21:27;4.00;;;3.60;;
46563;SDS011;32291;52.010;4.446;2023-04-24T02:22:29;6.30;;;3.30;;
46563;SDS011;32291;52.010;4.446;2023-04-24T02:23:31;4.20;;;3.30;;
46563;SDS011;32291;52.010;4.446;2023-04-24T02:24:33;3.90;;;3.60;;
46563;SDS011;32291;52.010;4.446;2023-04-24T02:25:35;5.45;;;3.75;;
46563;SDS011;32291;52.010;4.446;2023-04-24T02:26:37;5.40;;;3.65;;
46563;SDS011;32291;52.010;4.446;2023-04-24T02:27:39;3.67;;;3.38;;
46563;SDS011;32291;52.010;4.446;2023-04-24T02:28:40;4.43;;;4.03;;
46563;SDS011;32291;52.010;4.446;2023-04-24T02:29:42;4.63;;;3.90;;
46563;SDS011;32291;52.010;4.446;2023-04-24T02:30:44;4.45;;;3.85;;
46563;SDS011;32291;52.010;4.446;2023-04-24T02:31:46;5.30;;;3.38;;
46563;SDS011;32291;52.010;4.446;2023-04-24T02:32:47;3.63;;;3.20;;
46563;SDS011;32291;52.010;4.446;2023-04-24T02:33:49;3.88;;;3.03;;
46563;SDS011;32291;52.010;4.446;2023-04-24T02:34:50;5.50;;;3.42;;
46563;SDS011;32291;52.010;4.446;2023-04-24T02:35:53;3.35;;;2.60;;
46563;SDS011;32291;52.010;4.446;2023-04-24T02:36:54;3.08;;;2.70;;
46563;SDS011;32291;52.010;4.446;2023-04-24T02:37:56;3.47;;;2.67;;
46563;SDS011;32291;52.010;4.446;2023-04-24T02:38:58;3.13;;;2.40;;
46563;SDS011;32291;52.010;4.446;2023-04-24T02:40:01;4.43;;;2.40;;
46563;SDS011;32291;52.010;4.446;2023-04-24T02:41:03;2.45;;;1.98;;
46563;SDS011;32291;52.010;4.446;2023-04-24T02:42:06;4.32;;;2.15;;
46563;SDS011;32291;52.010;4.446;2023-04-24T02:43:08;3.03;;;1.95;;
46563;SDS011;32291;52.010;4.446;2023-04-24T02:44:10;4.38;;;1.63;;
46563;SDS011;32291;52.010;4.446;2023-04-24T02:45:12;5.35;;;1.88;;
46563;SDS011;32291;52.010;4.446;2023-04-24T02:46:14;3.67;;;1.80;;
46563;SDS011;32291;52.010;4.446;2023-04-24T02:47:16;4.45;;;1.63;;
46563;SDS011;32291;52.010;4.446;2023-04-24T02:48:17;2.95;;;1.30;;
46563;SDS011;32291;52.010;4.446;2023-04-24T02:49:19;4.93;;;1.40;;
46563;SDS011;32291;52.010;4.446;2023-04-24T02:50:21;3.85;;;1.40;;
46563;SDS011;32291;52.010;4.446;2023-04-24T02:51:22;1.77;;;1.10;;
46563;SDS011;32291;52.010;4.446;2023-04-24T02:52:24;4.65;;;1.50;;
46563;SDS011;32291;52.010;4.446;2023-04-24T02:53:26;1.92;;;1.30;;
46563;SDS011;32291;52.010;4.446;2023-04-24T02:54:27;1.45;;;1.20;;
46563;SDS011;32291;52.010;4.446;2023-04-24T02:55:29;4.78;;;1.40;;
46563;SDS011;32291;52.010;4.446;2023-04-24T02:56:31;6.70;;;1.58;;
46563;SDS011;32291;52.010;4.446;2023-04-24T02:57:33;3.42;;;1.83;;
46563;SDS011;32291;52.010;4.446;2023-04-24T02:58:35;6.78;;;1.77;;
46563;SDS011;32291;52.010;4.446;2023-04-24T02:59:36;2.60;;;1.63;;
46563;SDS011;32291;52.010;4.446;2023-04-24T03:00:38;3.00;;;1.45;;
46563;SDS011;32291;52.010;4.446;2023-04-24T03:01:40;4.65;;;1.45;;
46563;SDS011;32291;52.010;4.446;2023-04-24T03:02:42;3.17;;;1.40;;
46563;SDS011;32291;52.010;4.446;2023-04-24T03:03:44;1.90;;;1.60;;
46563;SDS011;32291;52.010;4.446;2023-04-24T03:04:46;2.97;;;1.35;;
46563;SDS011;32291;52.010;4.446;2023-04-24T03:05:51;2.92;;;1.55;;
46563;SDS011;32291;52.010;4.446;2023-04-24T03:06:53;2.15;;;1.70;;
46563;SDS011;32291;52.010;4.446;2023-04-24T03:07:55;4.28;;;1.70;;
46563;SDS011;32291;52.010;4.446;2023-04-24T03:08:57;5.05;;;1.77;;
46563;SDS011;32291;52.010;4.446;2023-04-24T03:09:59;2.38;;;1.80;;
46563;SDS011;32291;52.010;4.446;2023-04-24T03:11:01;3.90;;;1.63;;
46563;SDS011;32291;52.010;4.446;2023-04-24T03:12:03;4.05;;;1.77;;
46563;SDS011;32291;52.010;4.446;2023-04-24T03:13:05;4.35;;;1.63;;
46563;SDS011;32291;52.010;4.446;2023-04-24T03:14:07;5.05;;;1.80;;
46563;SDS011;32291;52.010;4.446;2023-04-24T03:15:08;6.18;;;2.28;;
46563;SDS011;32291;52.010;4.446;2023-04-24T03:16:10;7.18;;;2.30;;
46563;SDS011;32291;52.010;4.446;2023-04-24T03:17:12;4.85;;;2.40;;
46563;SDS011;32291;52.010;4.446;2023-04-24T03:18:14;4.75;;;2.40;;
46563;SDS011;32291;52.010;4.446;2023-04-24T03:19:15;5.75;;;2.75;;
46563;SDS011;32291;52.010;4.446;2023-04-24T03:20:17;5.60;;;2.33;;
46563;SDS011;32291;52.010;4.446;2023-04-24T03:21:19;6.80;;;2.53;;
46563;SDS011;32291;52.010;4.446;2023-04-24T03:22:21;4.00;;;2.53;;
46563;SDS011;32291;52.010;4.446;2023-04-24T03:23:23;4.55;;;2.05;;
46563;SDS011;32291;52.010;4.446;2023-04-24T03:24:24;6.35;;;2.38;;
46563;SDS011;32291;52.010;4.446;2023-04-24T03:25:28;5.45;;;1.90;;
46563;SDS011;32291;52.010;4.446;2023-04-24T03:26:30;4.30;;;1.92;;
46563;SDS011;32291;52.010;4.446;2023-04-24T03:27:32;2.95;;;2.35;;
46563;SDS011;32291;52.010;4.446;2023-04-24T03:28:33;3.05;;;1.98;;
46563;SDS011;32291;52.010;4.446;2023-04-24T03:29:35;3.92;;;2.08;;
46563;SDS011;32291;52.010;4.446;2023-04-24T03:30:36;3.35;;;1.60;;
46563;SDS011;32291;52.010;4.446;2023-04-24T03:31:38;1.80;;;1.48;;
46563;SDS011;32291;52.010;4.446;2023-04-24T03:32:40;3.65;;;1.77;;
46563;SDS011;32291;52.010;4.446;2023-04-24T03:33:41;2.20;;;1.90;;
46563;SDS011;32291;52.010;4.446;2023-04-24T03:34:43;2.45;;;1.40;;
46563;SDS011;32291;52.010;4.446;2023-04-24T03:35:45;3.60;;;1.63;;
46563;SDS011;32291;52.010;4.446;2023-04-24T03:36:47;2.95;;;1.75;;
46563;SDS011;32291;52.010;4.446;2023-04-24T03:37:49;3.88;;;2.28;;
46563;SDS011;32291;52.010;4.446;2023-04-24T03:38:51;4.10;;;1.75;;
46563;SDS011;32291;52.010;4.446;2023-04-24T03:39:53;2.20;;;1.92;;
46563;SDS011;32291;52.010;4.446;2023-04-24T03:40:55;3.78;;;1.90;;
46563;SDS011;32291;52.010;4.446;2023-04-24T03:41:56;5.45;;;1.88;;
46563;SDS011;32291;52.010;4.446;2023-04-24T03:42:59;4.18;;;1.95;;
46563;SDS011;32291;52.010;4.446;2023-04-24T03:44:01;5.35;;;2.10;;
46563;SDS011;32291;52.010;4.446;2023-04-24T03:45:02;3.03;;;2.00;;
46563;SDS011;32291;52.010;4.446;2023-04-24T03:46:05;2.17;;;1.63;;
46563;SDS011;32291;52.010;4.446;2023-04-24T03:47:07;2.83;;;1.77;;
46563;SDS011;32291;52.010;4.446;2023-04-24T03:48:09;4.18;;;1.95;;
46563;SDS011;32291;52.010;4.446;2023-04-24T03:49:12;3.10;;;1.88;;
46563;SDS011;32291;52.010;4.446;2023-04-24T03:50:14;2.08;;;1.85;;
46563;SDS011;32291;52.010;4.446;2023-04-24T03:51:16;3.42;;;1.88;;
46563;SDS011;32291;52.010;4.446;2023-04-24T03:52:18;3.50;;;1.70;;
46563;SDS011;32291;52.010;4.446;2023-04-24T03:53:20;2.20;;;1.73;;
46563;SDS011;32291;52.010;4.446;2023-04-24T03:54:21;3.35;;;2.08;;
46563;SDS011;32291;52.010;4.446;2023-04-24T03:55:23;5.15;;;1.80;;
46563;SDS011;32291;52.010;4.446;2023-04-24T03:56:24;4.63;;;1.98;;
46563;SDS011;32291;52.010;4.446;2023-04-24T03:57:26;3.88;;;1.90;;
46563;SDS011;32291;52.010;4.446;2023-04-24T03:58:28;3.63;;;1.88;;
46563;SDS011;32291;52.010;4.446;2023-04-24T03:59:30;4.95;;;1.98;;
46563;SDS011;32291;52.010;4.446;2023-04-24T04:00:32;2.33;;;2.08;;
46563;SDS011;32291;52.010;4.446;2023-04-24T04:01:35;2.88;;;1.88;;
46563;SDS011;32291;52.010;4.446;2023-04-24T04:02:38;2.38;;;1.50;;
46563;SDS011;32291;52.010;4.446;2023-04-24T04:03:40;2.95;;;1.85;;
46563;SDS011;32291;52.010;4.446;2023-04-24T04:04:42;3.03;;;1.90;;
46563;SDS011;32291;52.010;4.446;2023-04-24T04:05:43;3.08;;;1.90;;
46563;SDS011;32291;52.010;4.446;2023-04-24T04:06:45;3.00;;;2.00;;
46563;SDS011;32291;52.010;4.446;2023-04-24T04:07:47;3.70;;;2.28;;
46563;SDS011;32291;52.010;4.446;2023-04-24T04:08:48;5.47;;;1.95;;
46563;SDS011;32291;52.010;4.446;2023-04-24T04:09:50;5.05;;;1.98;;
46563;SDS011;32291;52.010;4.446;2023-04-24T04:10:52;3.85;;;2.17;;
46563;SDS011;32291;52.010;4.446;2023-04-24T04:11:54;5.07;;;2.20;;
46563;SDS011;32291;52.010;4.446;2023-04-24T04:12:55;3.10;;;2.25;;
46563;SDS011;32291;52.010;4.446;2023-04-24T04:13:57;4.90;;;2.05;;
46563;SDS011;32291;52.010;4.446;2023-04-24T04:14:59;3.40;;;1.88;;
46563;SDS011;32291;52.010;4.446;2023-04-24T04:16:01;7.32;;;2.08;;
46563;SDS011;32291;52.010;4.446;2023-04-24T04:17:03;2.97;;;1.83;;
46563;SDS011;32291;52.010;4.446;2023-04-24T04:18:05;5.25;;;1.83;;
46563;SDS011;32291;52.010;4.446;2023-04-24T04:19:06;3.85;;;1.80;;
46563;SDS011;32291;52.010;4.446;2023-04-24T04:20:08;5.18;;;1.85;;
46563;SDS011;32291;52.010;4.446;2023-04-24T04:21:10;2.92;;;1.70;;
46563;SDS011;32291;52.010;4.446;2023-04-24T04:22:13;3.80;;;2.05;;
46563;SDS011;32291;52.010;4.446;2023-04-24T04:23:14;7.85;;;2.72;;
46563;SDS011;32291;52.010;4.446;2023-04-24T04:24:16;2.17;;;1.92;;
46563;SDS011;32291;52.010;4.446;2023-04-24T04:25:17;7.32;;;2.85;;
46563;SDS011;32291;52.010;4.446;2023-04-24T04:26:20;3.45;;;3.15;;
46563;SDS011;32291;52.010;4.446;2023-04-24T04:27:26;3.95;;;3.53;;
46563;SDS011;32291;52.010;4.446;2023-04-24T04:28:29;7.55;;;3.88;;
46563;SDS011;32291;52.010;4.446;2023-04-24T04:29:34;10.27;;;4.38;;
46563;SDS011;32291;52.010;4.446;2023-04-24T04:30:36;8.52;;;5.03;;
46563;SDS011;32291;52.010;4.446;2023-04-24T04:31:39;10.57;;;5.43;;
46563;SDS011;32291;52.010;4.446;2023-04-24T04:32:41;10.40;;;5.13;;
46563;SDS011;32291;52.010;4.446;2023-04-24T04:33:43;4.88;;;4.47;;
46563;SDS011;32291;52.010;4.446;2023-04-24T04:34:45;8.50;;;5.30;;
46563;SDS011;32291;52.010;4.446;2023-04-24T04:35:47;8.60;;;4.90;;
46563;SDS011;32291;52.010;4.446;2023-04-24T04:36:52;6.80;;;4.95;;
46563;SDS011;32291;52.010;4.446;2023-04-24T04:37:54;7.13;;;5.00;;
46563;SDS011;32291;52.010;4.446;2023-04-24T04:38:59;8.07;;;5.53;;
46563;SDS011;32291;52.010;4.446;2023-04-24T04:40:01;7.80;;;5.75;;
46563;SDS011;32291;52.010;4.446;2023-04-24T04:41:13;11.57;;;6.03;;
46563;SDS011;32291;52.010;4.446;2023-04-24T04:42:14;14.93;;;5.47;;
46563;SDS011;32291;52.010;4.446;2023-04-24T04:43:16;9.43;;;5.10;;
46563;SDS011;32291;52.010;4.446;2023-04-24T04:44:17;8.13;;;4.70;;
46563;SDS011;32291;52.010;4.446;2023-04-24T04:45:19;7.15;;;4.72;;
46563;SDS011;32291;52.010;4.446;2023-04-24T04:46:22;7.78;;;4.47;;
46563;SDS011;32291;52.010;4.446;2023-04-24T04:47:27;5.95;;;4.38;;
46563;SDS011;32291;52.010;4.446;2023-04-24T04:48:29;6.00;;;4.90;;
46563;SDS011;32291;52.010;4.446;2023-04-24T04:49:32;8.50;;;5.90;;
46563;SDS011;32291;52.010;4.446;2023-04-24T04:50:33;11.02;;;5.82;;
46563;SDS011;32291;52.010;4.446;2023-04-24T04:51:36;12.40;;;7.28;;
46563;SDS011;32291;52.010;4.446;2023-04-24T04:52:38;14.02;;;7.13;;
46563;SDS011;32291;52.010;4.446;2023-04-24T04:53:40;12.27;;;8.38;;
46563;SDS011;32291;52.010;4.446;2023-04-24T04:54:41;16.70;;;9.65;;
46563;SDS011;32291;52.010;4.446;2023-04-24T04:55:43;18.58;;;9.80;;
46563;SDS011;32291;52.010;4.446;2023-04-24T04:56:45;18.15;;;11.52;;
46563;SDS011;32291;52.010;4.446;2023-04-24T04:57:47;19.27;;;12.38;;
46563;SDS011;32291;52.010;4.446;2023-04-24T04:58:49;21.42;;;13.55;;
46563;SDS011;32291;52.010;4.446;2023-04-24T04:59:50;25.92;;;15.07;;
46563;SDS011;32291;52.010;4.446;2023-04-24T05:00:52;24.95;;;15.88;;
46563;SDS011;32291;52.010;4.446;2023-04-24T05:01:55;27.25;;;16.98;;
46563;SDS011;32291;52.010;4.446;2023-04-24T05:02:56;25.40;;;16.55;;
46563;SDS011;32291;52.010;4.446;2023-04-24T05:03:58;27.17;;;18.63;;
46563;SDS011;32291;52.010;4.446;2023-04-24T05:05:00;27.88;;;17.60;;
46563;SDS011;32291;52.010;4.446;2023-04-24T05:06:02;24.17;;;17.65;;
46563;SDS011;32291;52.010;4.446;2023-04-24T05:07:05;28.95;;;19.77;;
46563;SDS011;32291;52.010;4.446;2023-04-24T05:08:07;27.63;;;17.75;;
46563;SDS011;32291;52.010;4.446;2023-04-24T05:09:10;31.08;;;19.25;;
46563;SDS011;32291;52.010;4.446;2023-04-24T05:10:11;28.42;;;18.60;;
46563;SDS011;32291;52.010;4.446;2023-04-24T05:11:13;25.83;;;17.67;;
46563;SDS011;32291;52.010;4.446;2023-04-24T05:12:16;31.38;;;18.48;;
46563;SDS011;32291;52.010;4.446;2023-04-24T05:13:18;27.95;;;17.95;;
46563;SDS011;32291;52.010;4.446;2023-04-24T05:14:19;20.50;;;14.50;;
46563;SDS011;32291;52.010;4.446;2023-04-24T05:15:21;28.27;;;17.10;;
46563;SDS011;32291;52.010;4.446;2023-04-24T05:16:24;26.63;;;16.88;;
46563;SDS011;32291;52.010;4.446;2023-04-24T05:17:26;28.55;;;17.02;;
46563;SDS011;32291;52.010;4.446;2023-04-24T05:18:28;23.02;;;16.23;;
46563;SDS011;32291;52.010;4.446;2023-04-24T05:19:30;23.27;;;15.70;;
46563;SDS011;32291;52.010;4.446;2023-04-24T05:20:34;26.70;;;15.80;;
46563;SDS011;32291;52.010;4.446;2023-04-24T05:21:35;25.48;;;15.57;;
46563;SDS011;32291;52.010;4.446;2023-04-24T05:22:37;26.80;;;15.43;;
46563;SDS011;32291;52.010;4.446;2023-04-24T05:23:38;23.10;;;14.40;;
46563;SDS011;32291;52.010;4.446;2023-04-24T05:24:40;22.98;;;15.45;;
46563;SDS011;32291;52.010;4.446;2023-04-24T05:25:42;23.42;;;15.52;;
46563;SDS011;32291;52.010;4.446;2023-04-24T05:26:44;18.58;;;14.95;;
46563;SDS011;32291;52.010;4.446;2023-04-24T05:27:46;25.63;;;16.55;;
46563;SDS011;32291;52.010;4.446;2023-04-24T05:28:48;29.98;;;18.58;;
46563;SDS011;32291;52.010;4.446;2023-04-24T05:29:51;26.33;;;16.85;;
46563;SDS011;32291;52.010;4.446;2023-04-24T05:30:53;23.92;;;16.08;;
46563;SDS011;32291;52.010;4.446;2023-04-24T05:31:56;23.15;;;15.25;;
46563;SDS011;32291;52.010;4.446;2023-04-24T05:32:58;33.20;;;17.85;;
46563;SDS011;32291;52.010;4.446;2023-04-24T05:34:00;23.48;;;17.33;;
46563;SDS011;32291;52.010;4.446;2023-04-24T05:35:02;28.33;;;15.93;;
46563;SDS011;32291;52.010;4.446;2023-04-24T05:36:04;33.10;;;17.65;;
46563;SDS011;32291;52.010;4.446;2023-04-24T05:37:07;30.08;;;16.58;;
46563;SDS011;32291;52.010;4.446;2023-04-24T05:38:11;31.52;;;17.67;;
46563;SDS011;32291;52.010;4.446;2023-04-24T05:39:14;23.15;;;16.17;;
46563;SDS011;32291;52.010;4.446;2023-04-24T05:40:16;22.90;;;16.77;;
46563;SDS011;32291;52.010;4.446;2023-04-24T05:41:18;29.52;;;17.63;;
46563;SDS011;32291;52.010;4.446;2023-04-24T05:42:20;33.20;;;16.88;;
46563;SDS011;32291;52.010;4.446;2023-04-24T05:43:21;26.30;;;17.98;;
46563;SDS011;32291;52.010;4.446;2023-04-24T05:44:23;30.08;;;16.85;;
46563;SDS011;32291;52.010;4.446;2023-04-24T05:45:25;27.58;;;16.77;;
46563;SDS011;32291;52.010;4.446;2023-04-24T05:46:27;25.52;;;16.40;;
46563;SDS011;32291;52.010;4.446;2023-04-24T05:47:29;26.88;;;16.05;;
46563;SDS011;32291;52.010;4.446;2023-04-24T05:48:31;26.17;;;17.23;;
46563;SDS011;32291;52.010;4.446;2023-04-24T05:49:33;36.92;;;17.95;;
46563;SDS011;32291;52.010;4.446;2023-04-24T05:50:35;26.85;;;17.77;;
46563;SDS011;32291;52.010;4.446;2023-04-24T05:51:36;28.75;;;17.23;;
46563;SDS011;32291;52.010;4.446;2023-04-24T05:52:40;26.00;;;16.65;;
46563;SDS011;32291;52.010;4.446;2023-04-24T05:53:41;28.60;;;16.98;;
46563;SDS011;32291;52.010;4.446;2023-04-24T05:54:43;29.58;;;17.40;;
46563;SDS011;32291;52.010;4.446;2023-04-24T05:55:45;24.27;;;15.63;;
46563;SDS011;32291;52.010;4.446;2023-04-24T05:56:47;27.65;;;16.58;;
46563;SDS011;32291;52.010;4.446;2023-04-24T05:57:50;27.55;;;16.90;;
46563;SDS011;32291;52.010;4.446;2023-04-24T05:58:52;27.58;;;16.35;;
46563;SDS011;32291;52.010;4.446;2023-04-24T05:59:54;26.90;;;15.50;;
46563;SDS011;32291;52.010;4.446;2023-04-24T06:00:57;30.13;;;15.07;;
46563;SDS011;32291;52.010;4.446;2023-04-24T06:01:59;25.02;;;13.05;;
46563;SDS011;32291;52.010;4.446;2023-04-24T06:03:01;27.80;;;14.52;;
46563;SDS011;32291;52.010;4.446;2023-04-24T06:04:04;26.60;;;12.40;;
46563;SDS011;32291;52.010;4.446;2023-04-24T06:05:06;25.30;;;13.15;;
46563;SDS011;32291;52.010;4.446;2023-04-24T06:06:09;28.17;;;13.02;;
46563;SDS011;32291;52.010;4.446;2023-04-24T06:07:10;28.73;;;14.07;;
46563;SDS011;32291;52.010;4.446;2023-04-24T06:08:12;25.90;;;12.55;;
46563;SDS011;32291;52.010;4.446;2023-04-24T06:09:14;30.80;;;12.70;;
46563;SDS011;32291;52.010;4.446;2023-04-24T06:10:16;22.73;;;11.23;;
46563;SDS011;32291;52.010;4.446;2023-04-24T06:11:17;31.73;;;11.35;;
46563;SDS011;32291;52.010;4.446;2023-04-24T06:12:19;26.63;;;12.40;;